Pogibi, Russia
Current Conditions -  °F | °C
As of 1:00 AM on Saturday 01 Nov 2014 (Local Time) from UHSS Reporting Station
Scattered Clouds Scattered Clouds  
Wind Chill: 21°   Ceiling: Unl
Heat Index: 27°   Visibility: 5mi
Dew Point: 27°   Wind: 4mph
Humidity: 100%   Direction: 360°N
Pressure: 30.21"   Gusts: NA
Location:  52.22°N, 141.66°E
Report Text: UHSS 311400Z 36002MPS 8000 SCT040 M03/M03 Q1023 RMKQFE766/1021
Loading
Personal Weather Stations






























Interactive Weather Map
Tropical Storm Tracking
New forecast layout! Learn more

10-Day Weather Forecast

Advertisements
Track Severe Weather on mobile